createdAt,value
2022-08-29T00:00:40.675Z,11.77
2022-08-29T00:01:40.668Z,11.73
2022-08-29T00:02:40.722Z,11.69
2022-08-29T00:03:40.910Z,11.72
2022-08-29T00:04:40.697Z,11.68
2022-08-29T00:05:42.433Z,11.66
2022-08-29T00:06:40.620Z,11.60
2022-08-29T00:07:40.618Z,11.62
2022-08-29T00:08:40.609Z,11.55
2022-08-29T00:09:40.623Z,11.65
2022-08-29T00:10:40.595Z,11.65
2022-08-29T00:11:45.312Z,11.62
2022-08-29T00:12:41.579Z,11.60
2022-08-29T00:13:40.571Z,11.65
2022-08-29T00:14:40.590Z,11.65
2022-08-29T00:15:44.471Z,11.55
2022-08-29T00:16:40.771Z,11.66
2022-08-29T00:17:40.536Z,11.48
2022-08-29T00:18:40.535Z,11.48
2022-08-29T00:19:40.551Z,11.54
2022-08-29T00:20:40.525Z,11.62
2022-08-29T00:21:40.512Z,11.55
2022-08-29T00:22:40.501Z,11.63
2022-08-29T00:23:40.501Z,11.65
2022-08-29T00:24:40.515Z,11.54
2022-08-29T00:25:40.474Z,11.60
2022-08-29T00:26:40.467Z,11.54
2022-08-29T00:27:40.461Z,11.55
2022-08-29T00:28:40.452Z,11.57
2022-08-29T00:29:40.442Z,11.50
2022-08-29T00:30:40.465Z,11.50
2022-08-29T00:31:40.489Z,11.54
2022-08-29T00:32:40.427Z,11.41
2022-08-29T00:33:40.415Z,11.50
2022-08-29T00:34:40.401Z,11.47
2022-08-29T00:35:40.595Z,11.54
2022-08-29T00:36:40.396Z,11.35
2022-08-29T00:37:40.379Z,11.37
2022-08-29T00:38:41.840Z,11.37
2022-08-29T00:39:40.368Z,11.37
2022-08-29T00:40:40.467Z,11.35
2022-08-29T00:41:40.351Z,11.33
2022-08-29T00:42:40.346Z,11.35
2022-08-29T00:43:40.334Z,11.41
2022-08-29T00:44:40.330Z,11.33
2022-08-29T00:45:40.380Z,11.32
2022-08-29T00:46:40.317Z,11.29
2022-08-29T00:47:40.307Z,11.18
2022-08-29T00:48:40.295Z,11.22
2022-08-29T00:49:40.296Z,11.12
2022-08-29T00:50:40.316Z,11.17
2022-08-29T00:51:40.281Z,11.10
2022-08-29T00:52:40.269Z,11.08
2022-08-29T00:53:40.268Z,11.05
2022-08-29T00:54:40.259Z,11.19
2022-08-29T00:55:40.278Z,11.14
2022-08-29T00:56:40.235Z,11.04
2022-08-29T00:57:40.236Z,11.07
2022-08-29T00:58:40.225Z,11.14
2022-08-29T00:59:40.210Z,11.04
2022-08-29T01:00:40.298Z,11.07
2022-08-29T01:01:40.201Z,10.99
2022-08-29T01:02:40.717Z,11.15
2022-08-29T01:03:43.059Z,10.99
2022-08-29T01:04:40.173Z,11.00
2022-08-29T01:05:40.198Z,11.11
2022-08-29T01:06:40.154Z,10.99
2022-08-29T01:07:40.700Z,10.99
2022-08-29T01:08:40.147Z,10.93
2022-08-29T01:09:40.137Z,10.96
2022-08-29T01:10:40.159Z,10.89
2022-08-29T01:11:40.119Z,10.89
2022-08-29T01:12:40.102Z,10.96
2022-08-29T01:13:40.099Z,10.96
2022-08-29T01:14:40.097Z,10.81
2022-08-29T01:15:40.117Z,10.90
2022-08-29T01:16:40.126Z,10.90
2022-08-29T01:17:40.067Z,10.82
2022-08-29T01:18:40.060Z,10.82
2022-08-29T01:19:40.056Z,10.86
2022-08-29T01:20:40.080Z,10.78
2022-08-29T01:21:40.032Z,10.78
2022-08-29T01:22:41.034Z,10.86
2022-08-29T01:23:40.025Z,10.75
2022-08-29T01:24:40.014Z,10.75
2022-08-29T01:25:40.008Z,10.64
2022-08-29T01:26:40.030Z,10.78
2022-08-29T01:27:39.986Z,10.74
2022-08-29T01:28:39.978Z,10.67
2022-08-29T01:29:39.979Z,10.54
2022-08-29T01:30:39.967Z,10.54
2022-08-29T01:31:57.215Z,10.67
2022-08-29T01:32:40.947Z,10.54
2022-08-29T01:33:39.944Z,10.56
2022-08-29T01:34:39.959Z,10.63
2022-08-29T01:35:39.930Z,10.54
2022-08-29T01:36:39.961Z,10.54
2022-08-29T01:37:39.918Z,10.68
2022-08-29T01:38:39.904Z,10.59
2022-08-29T01:39:39.897Z,10.57
2022-08-29T01:40:39.943Z,10.51
2022-08-29T01:41:39.909Z,10.67
2022-08-29T01:42:39.875Z,10.60
2022-08-29T01:43:39.873Z,10.54
2022-08-29T01:44:39.869Z,10.69
2022-08-29T01:45:39.957Z,10.59
2022-08-29T01:46:39.874Z,10.54
2022-08-29T01:47:39.837Z,10.46
2022-08-29T01:48:39.831Z,10.53
2022-08-29T01:49:40.856Z,10.49
2022-08-29T01:50:39.818Z,10.51
2022-08-29T01:51:39.834Z,10.46
2022-08-29T01:52:39.794Z,10.51
2022-08-29T01:53:39.816Z,10.51
2022-08-29T01:54:39.781Z,10.51
2022-08-29T01:55:39.774Z,10.48
2022-08-29T01:56:39.798Z,10.34
2022-08-29T01:57:39.757Z,10.44
2022-08-29T01:58:39.747Z,10.40
2022-08-29T01:59:39.750Z,10.35
2022-08-29T02:00:39.810Z,10.34
2022-08-29T02:01:39.790Z,10.34
2022-08-29T02:02:40.318Z,10.35
2022-08-29T02:03:39.712Z,10.40
2022-08-29T02:04:39.700Z,10.33
2022-08-29T02:05:39.698Z,10.28
2022-08-29T02:06:39.715Z,10.20
2022-08-29T02:07:39.679Z,10.33
2022-08-29T02:08:39.674Z,10.20
2022-08-29T02:09:39.652Z,10.26
2022-08-29T02:10:41.659Z,10.25
2022-08-29T02:11:39.676Z,10.30
2022-08-29T02:12:39.647Z,10.25
2022-08-29T02:13:39.637Z,10.16
2022-08-29T02:14:39.633Z,10.26
2022-08-29T02:15:39.628Z,10.16
2022-08-29T02:16:39.676Z,10.12
2022-08-29T02:17:39.611Z,10.09
2022-08-29T02:18:39.599Z,10.13
2022-08-29T02:19:39.593Z,10.09
2022-08-29T02:20:39.584Z,10.09
2022-08-29T02:21:39.603Z,10.12
2022-08-29T02:22:39.574Z,10.09
2022-08-29T02:23:39.570Z,10.01
2022-08-29T02:24:39.562Z,10.02
2022-08-29T02:25:39.546Z,10.01
2022-08-29T02:26:39.566Z,10.10
2022-08-29T02:27:39.531Z,10.13
2022-08-29T02:28:39.518Z,10.10
2022-08-29T02:29:39.518Z,10.07
2022-08-29T02:30:39.511Z,10.16
2022-08-29T02:31:39.555Z,10.05
2022-08-29T02:32:39.489Z,10.04
2022-08-29T02:33:39.488Z,10.12
2022-08-29T02:34:39.483Z,10.10
2022-08-29T02:35:42.729Z,10.09
2022-08-29T02:36:41.551Z,9.98
2022-08-29T02:37:39.449Z,10.04
2022-08-29T02:38:39.443Z,9.97
2022-08-29T02:39:39.436Z,10.02
2022-08-29T02:40:39.481Z,9.97
2022-08-29T02:41:39.444Z,10.02
2022-08-29T02:42:39.429Z,9.91
2022-08-29T02:43:39.400Z,9.94
2022-08-29T02:44:39.400Z,9.99
2022-08-29T02:45:39.388Z,9.94
2022-08-29T02:46:39.526Z,10.05
2022-08-29T02:47:39.376Z,9.97
2022-08-29T02:48:39.367Z,10.02
2022-08-29T02:49:39.363Z,9.87
2022-08-29T02:50:39.357Z,9.99
2022-08-29T02:51:39.367Z,10.01
2022-08-29T02:52:39.336Z,9.91
2022-08-29T02:53:39.329Z,9.92
2022-08-29T02:54:39.331Z,9.87
2022-08-29T02:55:39.313Z,9.87
2022-08-29T02:56:39.341Z,9.89
2022-08-29T02:57:39.295Z,9.87
2022-08-29T02:58:39.300Z,9.84
2022-08-29T02:59:39.279Z,9.86
2022-08-29T03:00:39.335Z,9.92
2022-08-29T03:01:39.336Z,9.87
2022-08-29T03:02:39.265Z,9.79
2022-08-29T03:03:39.253Z,9.89
2022-08-29T03:04:39.236Z,9.79
2022-08-29T03:05:40.236Z,9.82
2022-08-29T03:06:39.230Z,9.74
2022-08-29T03:07:39.248Z,9.76
2022-08-29T03:08:39.215Z,9.77
2022-08-29T03:09:39.215Z,9.87
2022-08-29T03:10:39.224Z,9.76
2022-08-29T03:11:39.210Z,9.74
2022-08-29T03:12:39.185Z,9.76
2022-08-29T03:13:39.176Z,9.69
2022-08-29T03:14:39.160Z,9.69
2022-08-29T03:15:39.154Z,9.74
2022-08-29T03:16:39.240Z,9.73
2022-08-29T03:17:39.147Z,9.69
2022-08-29T03:18:39.139Z,9.69
2022-08-29T03:19:39.131Z,9.66
2022-08-29T03:20:39.210Z,9.62
2022-08-29T03:21:39.143Z,9.56
2022-08-29T03:22:39.107Z,9.62
2022-08-29T03:23:39.091Z,9.48
2022-08-29T03:24:39.087Z,9.64
2022-08-29T03:25:39.077Z,9.55
2022-08-29T03:26:39.099Z,9.48
2022-08-29T03:27:39.066Z,9.44
2022-08-29T03:28:39.059Z,9.54
2022-08-29T03:29:39.052Z,9.47
2022-08-29T03:30:39.041Z,9.46
2022-08-29T03:31:39.098Z,9.54
2022-08-29T03:32:39.025Z,9.40
2022-08-29T03:33:39.019Z,9.41
2022-08-29T03:34:39.014Z,9.40
2022-08-29T03:35:39.003Z,9.47
2022-08-29T03:36:39.028Z,9.54
2022-08-29T03:37:38.991Z,9.46
2022-08-29T03:38:38.976Z,9.44
2022-08-29T03:39:38.973Z,9.54
2022-08-29T03:40:39.033Z,9.46
2022-08-29T03:41:38.988Z,9.41
2022-08-29T03:42:38.947Z,9.54
2022-08-29T03:43:38.946Z,9.47
2022-08-29T03:44:38.942Z,9.39
2022-08-29T03:45:38.926Z,9.46
2022-08-29T03:46:38.939Z,9.44
2022-08-29T03:47:38.937Z,9.34
2022-08-29T03:48:38.898Z,9.47
2022-08-29T03:49:38.894Z,9.43
2022-08-29T03:50:38.883Z,9.34
2022-08-29T03:51:38.883Z,9.47
2022-08-29T03:52:38.890Z,9.43
2022-08-29T03:53:38.856Z,9.41
2022-08-29T03:54:38.842Z,9.40
2022-08-29T03:55:38.834Z,9.31
2022-08-29T03:56:38.831Z,9.39
2022-08-29T03:57:38.857Z,9.37
2022-08-29T03:58:38.820Z,9.39
2022-08-29T03:59:38.816Z,9.29
2022-08-29T04:00:38.809Z,9.34
2022-08-29T04:01:38.891Z,9.31
2022-08-29T04:02:38.851Z,9.36
2022-08-29T04:03:38.777Z,9.31
2022-08-29T04:04:38.772Z,9.29
2022-08-29T04:05:38.760Z,9.28
2022-08-29T04:06:38.779Z,9.29
2022-08-29T04:07:38.750Z,9.34
2022-08-29T04:08:38.736Z,9.25
2022-08-29T04:09:38.737Z,9.29
2022-08-29T04:10:38.729Z,9.32
2022-08-29T04:11:38.711Z,9.19
2022-08-29T04:12:38.727Z,9.16
2022-08-29T04:13:38.703Z,9.29
2022-08-29T04:14:38.692Z,9.22
2022-08-29T04:15:38.684Z,9.11
2022-08-29T04:16:38.713Z,9.19
2022-08-29T04:17:53.150Z,9.26
2022-08-29T04:18:39.659Z,9.23
2022-08-29T04:19:38.654Z,9.18
2022-08-29T04:20:38.646Z,9.21
2022-08-29T04:21:38.635Z,9.26
2022-08-29T04:22:38.659Z,9.22
2022-08-29T04:23:38.621Z,9.19
2022-08-29T04:24:38.613Z,9.26
2022-08-29T04:25:38.602Z,9.25
2022-08-29T04:26:38.587Z,9.31
2022-08-29T04:27:39.620Z,9.28
2022-08-29T04:28:38.586Z,9.25
2022-08-29T04:29:38.574Z,9.28
2022-08-29T04:30:38.571Z,9.25
2022-08-29T04:31:38.672Z,9.22
2022-08-29T04:32:38.580Z,9.39
2022-08-29T04:33:38.551Z,9.36
2022-08-29T04:34:38.554Z,9.36
2022-08-29T04:35:38.528Z,9.36
2022-08-29T04:36:38.522Z,9.34
2022-08-29T04:37:38.542Z,9.29
2022-08-29T04:38:38.508Z,9.40
2022-08-29T04:39:38.494Z,9.37
2022-08-29T04:40:38.545Z,9.37
2022-08-29T04:41:38.480Z,9.44
2022-08-29T04:42:38.504Z,9.48
2022-08-29T04:43:38.470Z,9.46
2022-08-29T04:44:38.461Z,9.48
2022-08-29T04:45:38.449Z,9.50
2022-08-29T04:46:38.466Z,9.46
2022-08-29T04:47:38.462Z,9.54
2022-08-29T04:48:38.428Z,9.65
2022-08-29T04:49:38.418Z,9.74
2022-08-29T04:50:38.421Z,9.87
2022-08-29T04:51:38.407Z,9.82
2022-08-29T04:52:38.429Z,9.97
2022-08-29T04:53:38.396Z,10.19
2022-08-29T04:54:38.390Z,10.37
2022-08-29T04:55:38.380Z,10.90
2022-08-29T04:56:38.373Z,11.22
2022-08-29T04:57:38.389Z,11.57
2022-08-29T04:58:38.357Z,12.02
2022-08-29T04:59:38.345Z,12.46
2022-08-29T05:00:38.339Z,12.72
2022-08-29T05:01:38.371Z,13.30
2022-08-29T05:02:38.378Z,13.70
2022-08-29T05:03:38.312Z,14.03
2022-08-29T05:04:38.307Z,14.28
2022-08-29T05:05:38.307Z,14.55
2022-08-29T05:06:38.297Z,14.92
2022-08-29T05:07:38.517Z,15.07
2022-08-29T05:08:38.278Z,15.33
2022-08-29T05:09:38.274Z,15.55
2022-08-29T05:10:38.263Z,15.72
2022-08-29T05:11:38.258Z,15.94
2022-08-29T05:12:38.279Z,16.10
2022-08-29T05:13:38.248Z,16.36
2022-08-29T05:14:38.232Z,16.42
2022-08-29T05:15:38.243Z,16.66
2022-08-29T05:16:38.219Z,16.89
2022-08-29T05:17:38.236Z,17.24
2022-08-29T05:18:38.198Z,17.51
2022-08-29T05:19:38.195Z,17.71
2022-08-29T05:20:39.181Z,17.83
2022-08-29T05:21:38.166Z,18.10
2022-08-29T05:22:39.201Z,18.26
2022-08-29T05:23:38.155Z,18.40
2022-08-29T05:24:38.153Z,18.60
2022-08-29T05:25:38.143Z,18.81
2022-08-29T05:26:38.139Z,19.12
2022-08-29T05:27:38.156Z,19.21
2022-08-29T05:28:38.118Z,19.40
2022-08-29T05:29:38.114Z,19.66
2022-08-29T05:30:38.105Z,19.74
2022-08-29T05:31:38.164Z,19.77
2022-08-29T05:32:38.120Z,19.88
2022-08-29T05:33:38.097Z,20.06
2022-08-29T05:34:38.072Z,20.09
2022-08-29T05:35:38.064Z,20.07
2022-08-29T05:36:38.063Z,20.06
2022-08-29T05:37:38.070Z,20.18
2022-08-29T05:38:38.035Z,20.06
2022-08-29T05:39:38.030Z,20.29
2022-08-29T05:40:38.071Z,20.47
2022-08-29T05:41:38.616Z,20.62
2022-08-29T05:42:38.042Z,20.69
2022-08-29T05:43:38.007Z,20.67
2022-08-29T05:44:37.991Z,20.60
2022-08-29T05:45:37.983Z,20.56
2022-08-29T05:46:37.995Z,20.50
2022-08-29T05:47:38.024Z,20.39
2022-08-29T05:48:37.984Z,20.06
2022-08-29T05:49:37.964Z,19.74
2022-08-29T05:50:37.951Z,19.70
2022-08-29T05:51:39.864Z,20.19
2022-08-29T05:52:38.937Z,20.43
2022-08-29T05:53:37.954Z,20.70
2022-08-29T05:54:37.925Z,20.90
2022-08-29T05:55:37.920Z,21.03
2022-08-29T05:56:37.912Z,21.17
2022-08-29T05:57:37.896Z,21.37
2022-08-29T05:58:37.915Z,21.48
2022-08-29T05:59:37.891Z,21.67
2022-08-29T06:00:37.883Z,21.79
2022-08-29T06:01:37.868Z,21.72
2022-08-29T06:02:37.966Z,21.61
2022-08-29T06:03:37.962Z,21.75
2022-08-29T06:04:37.848Z,21.83
2022-08-29T06:05:37.846Z,21.88
2022-08-29T06:06:37.838Z,21.98
2022-08-29T06:07:37.871Z,21.95
2022-08-29T06:08:37.843Z,21.89
2022-08-29T06:09:37.816Z,22.04
2022-08-29T06:10:37.815Z,22.45
2022-08-29T06:11:37.803Z,22.45
2022-08-29T06:12:37.791Z,22.76
2022-08-29T06:13:37.812Z,22.76
2022-08-29T06:14:37.779Z,22.65
2022-08-29T06:15:37.858Z,22.50
2022-08-29T06:16:37.773Z,22.87
2022-08-29T06:17:37.754Z,23.12
2022-08-29T06:18:37.774Z,23.48
2022-08-29T06:19:37.748Z,23.34
2022-08-29T06:20:37.730Z,23.65
2022-08-29T06:21:37.734Z,23.05
2022-08-29T06:22:40.326Z,22.99
2022-08-29T06:23:38.744Z,22.96
2022-08-29T06:24:37.700Z,23.10
2022-08-29T06:25:39.971Z,23.55
2022-08-29T06:26:38.703Z,23.83
2022-08-29T06:27:37.695Z,23.93
2022-08-29T06:28:37.709Z,24.20
2022-08-29T06:29:43.020Z,24.14
2022-08-29T06:30:38.726Z,23.76
2022-08-29T06:31:37.671Z,23.36
2022-08-29T06:32:37.662Z,22.90
2022-08-29T06:33:37.675Z,22.68
2022-08-29T06:34:37.643Z,22.63
2022-08-29T06:35:37.633Z,22.63
2022-08-29T06:36:37.625Z,22.73
2022-08-29T06:37:37.615Z,23.15
2022-08-29T06:38:37.647Z,23.54
2022-08-29T06:39:37.606Z,23.62
2022-08-29T06:40:37.661Z,23.54
2022-08-29T06:41:37.589Z,23.71
2022-08-29T06:42:37.589Z,23.83
2022-08-29T06:43:37.626Z,23.86
2022-08-29T06:44:40.257Z,24.08
2022-08-29T06:45:38.567Z,24.17
2022-08-29T06:46:37.625Z,24.36
2022-08-29T06:47:37.556Z,24.66
2022-08-29T06:48:37.572Z,24.95
2022-08-29T06:49:37.535Z,24.63
2022-08-29T06:50:38.335Z,24.30
2022-08-29T06:51:37.538Z,23.71
2022-08-29T06:52:37.525Z,23.10
2022-08-29T06:53:37.879Z,22.55
2022-08-29T06:54:37.508Z,22.17
2022-08-29T06:55:37.496Z,22.13
2022-08-29T06:56:37.510Z,21.72
2022-08-29T06:57:37.486Z,21.36
2022-08-29T06:58:37.513Z,21.24
2022-08-29T06:59:37.478Z,21.37
2022-08-29T07:00:37.469Z,21.77
2022-08-29T07:01:37.574Z,21.99
2022-08-29T07:02:37.525Z,22.20
2022-08-29T07:03:37.443Z,22.15
2022-08-29T07:04:37.463Z,22.18
2022-08-29T07:05:37.431Z,21.82
2022-08-29T07:06:37.428Z,21.70
2022-08-29T07:07:37.425Z,21.73
2022-08-29T07:08:42.208Z,21.77
2022-08-29T07:09:39.403Z,22.15
2022-08-29T07:10:37.397Z,22.18
2022-08-29T07:11:40.966Z,22.45
2022-08-29T07:12:38.382Z,22.94
2022-08-29T07:13:37.412Z,23.08
2022-08-29T07:14:37.370Z,23.40
2022-08-29T07:15:37.373Z,23.10
2022-08-29T07:16:37.353Z,23.47
2022-08-29T07:17:37.351Z,23.92
2022-08-29T07:18:37.344Z,24.13
2022-08-29T07:19:37.367Z,24.14
2022-08-29T07:20:37.325Z,24.40
2022-08-29T07:21:37.321Z,24.42
2022-08-29T07:22:37.315Z,24.50
2022-08-29T07:23:37.311Z,24.18
2022-08-29T07:24:37.321Z,24.26
2022-08-29T07:25:37.295Z,24.81
2022-08-29T07:26:37.282Z,25.48
2022-08-29T07:27:37.278Z,25.80
2022-08-29T07:28:38.446Z,26.02
2022-08-29T07:29:37.293Z,26.41
2022-08-29T07:30:37.340Z,26.73
2022-08-29T07:31:37.255Z,27.17
2022-08-29T07:32:37.250Z,27.45
2022-08-29T07:33:37.243Z,27.44
2022-08-29T07:34:37.263Z,27.26
2022-08-29T07:35:37.231Z,26.73
2022-08-29T07:36:37.226Z,26.52
2022-08-29T07:37:37.215Z,25.85
2022-08-29T07:38:37.207Z,25.06
2022-08-29T07:39:37.223Z,24.78
2022-08-29T07:40:37.228Z,23.99
2022-08-29T07:41:37.211Z,24.21
2022-08-29T07:42:37.172Z,24.73
2022-08-29T07:43:38.180Z,24.70
2022-08-29T07:44:37.190Z,24.89
2022-08-29T07:45:37.203Z,24.81
2022-08-29T07:46:37.157Z,24.69
2022-08-29T07:47:37.147Z,24.20
2022-08-29T07:48:37.173Z,23.86
2022-08-29T07:49:41.361Z,23.95
2022-08-29T07:50:38.134Z,24.35
2022-08-29T07:51:37.116Z,24.38
2022-08-29T07:52:38.116Z,24.39
2022-08-29T07:53:37.134Z,24.33
2022-08-29T07:54:37.100Z,24.66
2022-08-29T07:55:37.092Z,24.77
2022-08-29T07:56:38.060Z,24.68
2022-08-29T07:57:39.960Z,24.20
2022-08-29T07:58:37.105Z,23.63
2022-08-29T07:59:37.064Z,23.54
2022-08-29T08:00:37.102Z,22.93
2022-08-29T08:01:37.106Z,22.53
2022-08-29T08:02:37.116Z,22.87
2022-08-29T08:03:37.070Z,22.94
2022-08-29T08:04:37.046Z,23.63
2022-08-29T08:05:37.025Z,24.18
2022-08-29T08:06:37.021Z,24.48
2022-08-29T08:07:40.135Z,23.96
2022-08-29T08:08:37.010Z,23.63
2022-08-29T08:09:37.023Z,23.36
2022-08-29T08:10:36.987Z,23.21
2022-08-29T08:11:37.031Z,23.02
2022-08-29T08:12:36.978Z,23.00
2022-08-29T08:13:36.968Z,22.83
2022-08-29T08:14:36.989Z,22.26
2022-08-29T08:15:36.963Z,21.69
2022-08-29T08:16:37.019Z,21.14
2022-08-29T08:17:39.826Z,20.78
2022-08-29T08:18:37.936Z,20.87
2022-08-29T08:19:36.954Z,21.03
2022-08-29T08:20:36.926Z,21.09
2022-08-29T08:21:36.919Z,21.22
2022-08-29T08:22:37.909Z,21.52
2022-08-29T08:23:36.897Z,21.51
2022-08-29T08:24:36.917Z,21.75
2022-08-29T08:25:36.886Z,21.76
2022-08-29T08:26:36.884Z,21.20
2022-08-29T08:27:41.056Z,21.03
2022-08-29T08:28:38.864Z,20.90
2022-08-29T08:29:36.905Z,21.11
2022-08-29T08:30:36.864Z,21.55
2022-08-29T08:31:36.901Z,21.76
2022-08-29T08:32:36.834Z,21.69
2022-08-29T08:33:36.827Z,21.62
2022-08-29T08:34:36.840Z,21.83
2022-08-29T08:35:36.810Z,22.14
2022-08-29T08:36:40.782Z,22.18
2022-08-29T08:37:37.858Z,22.44
2022-08-29T08:38:36.785Z,22.60
2022-08-29T08:39:36.812Z,22.45
2022-08-29T08:40:36.925Z,22.17
2022-08-29T08:41:37.758Z,22.14
2022-08-29T08:42:37.759Z,22.08
2022-08-29T08:43:36.757Z,22.30
2022-08-29T08:44:36.775Z,21.95
2022-08-29T08:45:36.785Z,21.72
2022-08-29T08:46:36.736Z,21.70
2022-08-29T08:47:36.729Z,21.57
2022-08-29T08:48:36.713Z,21.45
2022-08-29T08:49:36.747Z,21.66
2022-08-29T08:50:36.708Z,21.80
2022-08-29T08:51:36.698Z,22.04
2022-08-29T08:52:36.697Z,21.98
2022-08-29T08:53:36.686Z,21.83
2022-08-29T08:54:36.711Z,21.79
2022-08-29T08:55:36.675Z,22.15
2022-08-29T08:56:36.665Z,22.55
2022-08-29T08:57:36.656Z,22.54
2022-08-29T08:58:36.645Z,22.22
2022-08-29T08:59:36.685Z,21.91
2022-08-29T09:00:36.634Z,22.00
2022-08-29T09:01:36.639Z,21.67
2022-08-29T09:02:36.733Z,21.33
2022-08-29T09:03:36.648Z,21.18
2022-08-29T09:04:36.606Z,21.35
2022-08-29T09:05:36.596Z,21.09
2022-08-29T09:06:36.593Z,21.37
2022-08-29T09:07:36.594Z,21.70
2022-08-29T09:08:36.580Z,21.92
2022-08-29T09:09:36.596Z,22.07
2022-08-29T09:10:36.567Z,22.13
2022-08-29T09:11:36.563Z,22.11
2022-08-29T09:12:36.557Z,22.33
2022-08-29T09:13:36.540Z,22.65
2022-08-29T09:14:36.565Z,22.51
2022-08-29T09:15:36.527Z,22.50
2022-08-29T09:16:36.562Z,22.60
2022-08-29T09:17:36.623Z,22.65
2022-08-29T09:18:36.518Z,22.48
2022-08-29T09:19:36.528Z,22.53
2022-08-29T09:20:36.493Z,22.70
2022-08-29T09:21:40.900Z,22.94
2022-08-29T09:22:37.477Z,22.96
2022-08-29T09:23:36.470Z,22.33
2022-08-29T09:24:36.493Z,22.15
2022-08-29T09:25:36.511Z,22.14
2022-08-29T09:26:36.447Z,22.26
2022-08-29T09:27:36.437Z,22.57
2022-08-29T09:28:36.431Z,23.08
2022-08-29T09:29:36.449Z,23.37
2022-08-29T09:30:36.416Z,23.86
2022-08-29T09:31:36.461Z,23.61
2022-08-29T09:32:36.403Z,23.71
2022-08-29T09:33:36.397Z,23.23
2022-08-29T09:34:57.011Z,22.44
2022-08-29T09:35:38.379Z,21.95
2022-08-29T09:36:36.371Z,21.76
2022-08-29T09:37:36.369Z,21.76
2022-08-29T09:38:36.354Z,22.14
2022-08-29T09:39:36.369Z,22.51
2022-08-29T09:40:36.394Z,22.51
2022-08-29T09:41:36.340Z,22.44
2022-08-29T09:42:36.323Z,22.75
2022-08-29T09:43:36.318Z,23.15
2022-08-29T09:44:36.335Z,23.61
2022-08-29T09:45:36.344Z,23.88
2022-08-29T09:46:36.301Z,23.83
2022-08-29T09:47:36.287Z,23.58
2022-08-29T09:48:36.281Z,23.27
2022-08-29T09:49:36.302Z,23.23
2022-08-29T09:50:36.265Z,23.31
2022-08-29T09:51:36.268Z,23.02
2022-08-29T09:52:36.253Z,22.80
2022-08-29T09:53:36.245Z,22.75
2022-08-29T09:54:36.270Z,22.80
2022-08-29T09:55:36.227Z,22.75
2022-08-29T09:56:36.220Z,22.47
2022-08-29T09:57:36.210Z,22.83
2022-08-29T09:58:39.773Z,23.10
2022-08-29T09:59:37.223Z,23.10
2022-08-29T10:00:36.188Z,23.06
2022-08-29T10:01:36.862Z,23.09
2022-08-29T10:02:36.262Z,23.15
2022-08-29T10:03:36.173Z,23.03
2022-08-29T10:04:36.191Z,23.12
2022-08-29T10:05:36.159Z,23.24
2022-08-29T10:06:39.993Z,23.08
2022-08-29T10:07:37.675Z,23.17
2022-08-29T10:08:36.138Z,23.15
2022-08-29T10:09:36.139Z,23.31
2022-08-29T10:10:37.120Z,23.34
2022-08-29T10:11:36.111Z,23.66
2022-08-29T10:12:36.109Z,23.83
2022-08-29T10:13:36.097Z,23.81
2022-08-29T10:14:36.116Z,23.74
2022-08-29T10:15:51.689Z,23.91
2022-08-29T10:16:38.210Z,24.14
2022-08-29T10:17:36.062Z,24.08
2022-08-29T10:18:36.057Z,23.36
2022-08-29T10:19:36.083Z,22.63
2022-08-29T10:20:36.041Z,22.50
2022-08-29T10:21:36.021Z,22.45
2022-08-29T10:22:37.031Z,22.65
2022-08-29T10:23:36.028Z,23.06
2022-08-29T10:24:36.028Z,23.18
2022-08-29T10:25:36.029Z,23.28
2022-08-29T10:26:35.992Z,23.28
2022-08-29T10:27:35.990Z,23.32
2022-08-29T10:28:35.971Z,23.59
2022-08-29T10:29:36.972Z,23.86
2022-08-29T10:30:36.400Z,23.93
2022-08-29T10:31:36.052Z,23.93
2022-08-29T10:32:35.944Z,23.98
2022-08-29T10:33:35.940Z,24.11
2022-08-29T10:34:35.928Z,24.45
2022-08-29T10:35:35.948Z,24.68
2022-08-29T10:36:35.921Z,24.84
2022-08-29T10:37:35.912Z,24.88
2022-08-29T10:38:35.903Z,24.86
2022-08-29T10:39:35.903Z,24.69
2022-08-29T10:40:35.996Z,24.69
2022-08-29T10:41:35.885Z,24.53
2022-08-29T10:42:35.877Z,24.48
2022-08-29T10:43:35.865Z,24.43
2022-08-29T10:44:35.866Z,24.39
2022-08-29T10:45:35.928Z,24.30
2022-08-29T10:46:35.850Z,24.29
2022-08-29T10:47:35.840Z,24.24
2022-08-29T10:48:35.830Z,24.10
2022-08-29T10:49:35.827Z,24.03
2022-08-29T10:50:45.041Z,24.16
2022-08-29T10:51:37.809Z,24.26
2022-08-29T10:52:35.805Z,24.36
2022-08-29T10:53:35.798Z,24.58
2022-08-29T10:54:35.793Z,24.74
2022-08-29T10:55:35.813Z,24.88
2022-08-29T10:56:35.773Z,24.77
2022-08-29T10:57:35.764Z,24.86
2022-08-29T10:58:35.761Z,24.40
2022-08-29T10:59:35.751Z,24.18
2022-08-29T11:00:35.798Z,24.24
2022-08-29T11:01:35.858Z,23.99
2022-08-29T11:02:35.728Z,23.83
2022-08-29T11:03:35.745Z,23.51
2022-08-29T11:04:35.715Z,23.47
2022-08-29T11:05:35.740Z,23.58
2022-08-29T11:07:35.694Z,24.08
2022-08-29T11:08:35.685Z,24.16
2022-08-29T11:09:35.675Z,24.39
2022-08-29T11:10:35.703Z,24.70
2022-08-29T11:11:35.659Z,24.88
2022-08-29T11:12:35.658Z,25.14
2022-08-29T11:13:35.695Z,25.16
2022-08-29T11:14:35.659Z,24.73
2022-08-29T11:15:35.657Z,24.76
2022-08-29T11:16:35.682Z,24.91
2022-08-29T11:17:35.622Z,24.81
2022-08-29T11:18:35.609Z,24.85
2022-08-29T11:19:35.607Z,25.08
2022-08-29T11:20:35.627Z,25.14
2022-08-29T11:21:35.589Z,25.13
2022-08-29T11:22:35.592Z,24.98
2022-08-29T11:23:35.575Z,25.01
2022-08-29T11:24:37.348Z,24.98
2022-08-29T11:25:35.585Z,25.08
2022-08-29T11:26:35.550Z,25.07
2022-08-29T11:27:35.545Z,24.95
2022-08-29T11:28:35.592Z,24.70
2022-08-29T11:29:35.524Z,24.32
2022-08-29T11:30:39.751Z,24.28
2022-08-29T11:31:37.549Z,24.06
2022-08-29T11:32:36.263Z,23.86
2022-08-29T11:33:35.497Z,23.81
2022-08-29T11:34:35.490Z,23.47
2022-08-29T11:35:35.522Z,23.34
2022-08-29T11:36:35.473Z,23.40
2022-08-29T11:37:35.468Z,23.46
2022-08-29T11:38:35.449Z,23.83
2022-08-29T11:39:36.449Z,24.10
2022-08-29T11:41:37.486Z,23.95
2022-08-29T11:42:51.199Z,24.14
2022-08-29T11:43:37.420Z,24.39
2022-08-29T11:44:35.415Z,24.32
2022-08-29T11:45:36.839Z,24.20
2022-08-29T11:46:35.451Z,24.48
2022-08-29T11:47:40.750Z,24.65
2022-08-29T11:48:36.374Z,24.39
2022-08-29T11:49:35.368Z,24.10
2022-08-29T11:50:35.366Z,23.69
2022-08-29T11:51:36.228Z,23.27
2022-08-29T11:52:36.351Z,23.08
2022-08-29T11:53:35.340Z,23.31
2022-08-29T11:54:35.576Z,23.54
2022-08-29T11:55:35.325Z,23.87
2022-08-29T11:56:35.339Z,23.93
2022-08-29T11:57:35.309Z,24.05
2022-08-29T11:58:35.303Z,24.29
2022-08-29T11:59:35.292Z,24.61
2022-08-29T12:00:35.284Z,24.76
2022-08-29T12:01:35.304Z,24.91
2022-08-29T12:02:35.265Z,25.03
2022-08-29T12:03:35.690Z,24.88
2022-08-29T12:04:35.288Z,24.30
2022-08-29T12:05:35.250Z,24.28
2022-08-29T12:06:35.265Z,24.20
2022-08-29T12:07:35.233Z,24.38
2022-08-29T12:08:37.562Z,24.68
2022-08-29T12:09:36.222Z,24.93
2022-08-29T12:10:35.217Z,25.13
2022-08-29T12:11:35.228Z,25.26
2022-08-29T12:12:35.190Z,25.16
2022-08-29T12:13:35.188Z,25.08
2022-08-29T12:14:37.902Z,24.77
2022-08-29T12:15:36.170Z,24.53
2022-08-29T12:16:35.217Z,24.39
2022-08-29T12:17:58.188Z,24.39
2022-08-29T12:18:37.136Z,24.54
2022-08-29T12:19:36.141Z,24.80
2022-08-29T12:20:35.131Z,25.11
2022-08-29T12:21:35.147Z,25.01
2022-08-29T12:22:35.148Z,24.95
2022-08-29T12:23:35.748Z,24.92
2022-08-29T12:24:35.100Z,24.95
2022-08-29T12:25:35.093Z,25.10
2022-08-29T12:26:35.109Z,25.17
2022-08-29T12:27:35.079Z,25.38
2022-08-29T12:28:35.071Z,25.55
2022-08-29T12:29:43.657Z,25.75
2022-08-29T12:30:36.055Z,25.63
2022-08-29T12:31:35.141Z,25.70
2022-08-29T12:32:35.120Z,25.65
2022-08-29T12:33:35.037Z,25.81
2022-08-29T12:34:35.026Z,25.95
2022-08-29T12:35:35.014Z,25.98
2022-08-29T12:36:35.033Z,25.99
2022-08-29T12:37:34.999Z,25.95
2022-08-29T12:38:38.786Z,25.06
2022-08-29T12:39:35.984Z,24.60
2022-08-29T12:40:35.020Z,24.42
2022-08-29T12:41:36.003Z,24.17
2022-08-29T12:42:34.963Z,24.08
2022-08-29T12:43:34.959Z,23.98
2022-08-29T12:44:34.950Z,24.14
2022-08-29T12:45:34.942Z,24.17
2022-08-29T12:46:35.016Z,24.18
2022-08-29T12:47:34.929Z,24.20
2022-08-29T12:48:34.943Z,24.30
2022-08-29T12:49:34.914Z,24.26
2022-08-29T12:50:34.905Z,24.33
2022-08-29T12:51:34.898Z,24.36
2022-08-29T12:52:34.915Z,24.29
2022-08-29T12:53:34.896Z,24.54
2022-08-29T12:54:34.872Z,24.57
2022-08-29T12:55:34.860Z,24.57
2022-08-29T12:56:35.859Z,24.40
2022-08-29T12:57:34.882Z,24.42
2022-08-29T12:58:34.846Z,24.54